Time;durP1;ratioP1;P1;durP2;ratioP2;P2;SDS_P1;SDS_P2;PMS_P1;PMS_P2;Temp;Humidity;BMP_temperature;BMP_pressure;BME280_temperature;BME280_humidity;BME280_pressure;Samples;Min_cycle;Max_cycle;Signal;HPM_P1;HPM_P2
2023/06/12 00:00:14;;;;;;;4.58;3.60;;;20.40;48.50;;;;;;915940;154;27399;-75
2023/06/12 00:02:40;;;;;;;4.28;3.70;;;20.40;47.90;;;;;;935862;151;27659;-75
2023/06/12 00:05:08;;;;;;;4.20;3.70;;;20.50;48.60;;;;;;935402;150;27288;-75
2023/06/12 00:07:35;;;;;;;3.55;3.25;;;20.60;48.60;;;;;;938514;151;27320;-75
2023/06/12 00:10:00;;;;;;;4.08;3.77;;;20.60;48.50;;;;;;937923;150;27435;-75
2023/06/12 00:12:27;;;;;;;3.87;3.58;;;20.70;48.50;;;;;;937398;150;27481;-75
2023/06/12 00:14:53;;;;;;;3.70;3.40;;;20.80;48.40;;;;;;936293;151;27419;-75
2023/06/12 00:17:20;;;;;;;3.95;3.40;;;20.90;48.40;;;;;;921108;153;27394;-75
2023/06/12 00:19:46;;;;;;;3.60;3.30;;;21.00;48.30;;;;;;918103;154;27331;-75
2023/06/12 00:22:13;;;;;;;5.20;3.50;;;21.10;48.10;;;;;;934856;151;27392;-75
2023/06/12 00:24:40;;;;;;;3.58;3.20;;;21.20;48.00;;;;;;936470;151;27702;-75
2023/06/12 00:27:06;;;;;;;3.08;2.87;;;21.20;48.60;;;;;;937878;151;27397;-75
2023/06/12 00:29:33;;;;;;;4.08;3.77;;;21.30;47.90;;;;;;936738;151;27365;-75
2023/06/12 00:31:59;;;;;;;3.65;3.35;;;21.30;47.90;;;;;;936226;151;27369;-75
2023/06/12 00:34:26;;;;;;;3.67;3.37;;;21.30;47.80;;;;;;934757;151;27736;-75
2023/06/12 00:36:53;;;;;;;2.98;2.77;;;21.40;47.80;;;;;;937803;151;27361;-75
2023/06/12 00:39:20;;;;;;;3.60;3.40;;;21.40;47.70;;;;;;907306;154;27433;-75
2023/06/12 00:41:46;;;;;;;3.08;2.87;;;21.40;47.70;;;;;;907030;154;27465;-75
2023/06/12 00:44:12;;;;;;;3.50;3.20;;;21.40;47.70;;;;;;907390;154;27561;-75
2023/06/12 00:46:39;;;;;;;3.70;3.20;;;21.40;47.40;;;;;;905303;154;27424;-75
2023/06/12 00:49:06;;;;;;;3.45;3.08;;;21.40;47.40;;;;;;906585;154;27301;-75
2023/06/12 00:51:33;;;;;;;3.22;2.98;;;21.40;47.30;;;;;;907019;154;27482;-75
2023/06/12 00:53:59;;;;;;;3.37;3.17;;;21.40;47.30;;;;;;906274;154;27380;-75
2023/06/12 00:56:26;;;;;;;3.62;3.33;;;21.40;47.30;;;;;;907166;154;27399;-75
2023/06/12 00:58:52;;;;;;;3.42;3.12;;;21.50;47.30;;;;;;905108;154;27407;-75
2023/06/12 01:01:24;;;;;;;3.60;3.40;;;21.60;47.20;;;;;;906800;153;27406;-75
2023/06/12 01:03:45;;;;;;;3.60;3.40;;;21.60;47.10;;;;;;920789;153;27387;-75
2023/06/12 01:06:13;;;;;;;3.40;3.20;;;21.70;47.00;;;;;;934066;150;27454;-75
2023/06/12 01:08:38;;;;;;;4.00;3.30;;;21.80;46.90;;;;;;919934;153;27462;-75
2023/06/12 01:11:05;;;;;;;3.50;2.87;;;21.80;46.80;;;;;;920018;153;27475;-75
2023/06/12 01:13:33;;;;;;;3.52;3.22;;;21.80;46.70;;;;;;934347;151;27416;-75
2023/06/12 01:15:58;;;;;;;3.15;2.87;;;21.80;46.70;;;;;;919788;153;27433;-75
2023/06/12 01:18:25;;;;;;;3.17;2.98;;;21.80;46.60;;;;;;914280;154;27423;-75
2023/06/12 01:20:53;;;;;;;3.62;3.33;;;21.80;46.60;;;;;;923697;154;27387;-75
2023/06/12 01:23:37;;;;;;;3.33;3.05;;;21.80;46.60;;;;;;907214;154;27352;-75
2023/06/12 01:26:34;;;;;;;3.40;3.17;;;21.70;46.60;;;;;;933659;151;27345;-75
2023/06/12 01:29:27;;;;;;;3.10;2.90;;;21.70;46.60;;;;;;932943;151;27376;-75
2023/06/12 01:32:01;;;;;;;3.45;3.20;;;21.60;46.60;;;;;;920291;153;27510;-75
2023/06/12 01:34:26;;;;;;;3.10;2.90;;;21.50;46.60;;;;;;904725;154;27480;-75
2023/06/12 01:37:05;;;;;;;4.00;3.60;;;21.40;46.70;;;;;;904705;154;27481;-75
2023/06/12 01:39:37;;;;;;;3.47;3.20;;;21.30;46.80;;;;;;932371;151;27414;-75
2023/06/12 01:42:04;;;;;;;3.42;3.20;;;21.30;46.90;;;;;;920134;153;28034;-74
2023/06/12 01:44:30;;;;;;;3.60;3.30;;;21.20;46.90;;;;;;933396;151;27405;-74
2023/06/12 01:46:57;;;;;;;3.35;3.15;;;21.10;47.10;;;;;;905784;154;27518;-75
2023/06/12 01:49:23;;;;;;;3.20;3.00;;;21.10;47.30;;;;;;905419;154;27474;-75
2023/06/12 01:51:50;;;;;;;3.45;3.02;;;21.00;47.30;;;;;;904415;154;27308;-75
2023/06/12 01:54:17;;;;;;;3.15;2.85;;;20.90;47.30;;;;;;906370;153;27809;-75
2023/06/12 01:56:43;;;;;;;3.40;3.20;;;20.90;47.40;;;;;;907343;154;27493;-75
2023/06/12 01:59:11;;;;;;;3.58;3.25;;;20.80;47.50;;;;;;905954;154;27463;-75
2023/06/12 02:01:36;;;;;;;3.70;3.17;;;20.70;47.50;;;;;;908023;154;27465;-75
2023/06/12 02:04:03;;;;;;;3.47;3.17;;;20.70;47.80;;;;;;904826;154;27504;-75
2023/06/12 02:06:29;;;;;;;3.40;3.12;;;20.60;47.90;;;;;;905170;154;27527;-75
2023/06/12 02:08:56;;;;;;;3.62;3.20;;;20.50;48.00;;;;;;904757;154;27517;-75
2023/06/12 02:11:23;;;;;;;3.12;2.92;;;20.40;48.00;;;;;;905476;154;27424;-75
2023/06/12 02:13:49;;;;;;;3.47;3.17;;;20.40;48.10;;;;;;906234;154;27380;-75
2023/06/12 02:16:21;;;;;;;3.70;3.40;;;20.30;48.30;;;;;;907597;154;27339;-75
2023/06/12 02:18:45;;;;;;;4.05;3.75;;;20.30;48.40;;;;;;907179;154;27516;-75
2023/06/12 02:21:12;;;;;;;3.15;2.95;;;20.20;48.50;;;;;;906822;154;27348;-75
2023/06/12 02:23:38;;;;;;;3.70;3.40;;;20.10;48.70;;;;;;905647;154;27320;-75
2023/06/12 02:26:05;;;;;;;3.33;3.02;;;20.10;48.80;;;;;;935084;151;27333;-75
2023/06/12 02:28:32;;;;;;;3.42;3.12;;;20.00;49.00;;;;;;939069;151;27435;-75
2023/06/12 02:30:58;;;;;;;3.55;3.30;;;19.90;49.10;;;;;;937444;151;27817;-75
2023/06/12 02:33:25;;;;;;;3.40;3.10;;;19.90;49.30;;;;;;936507;151;27524;-75
2023/06/12 02:35:51;;;;;;;3.45;3.15;;;19.80;49.40;;;;;;919352;153;27424;-75
2023/06/12 02:38:18;;;;;;;3.87;3.58;;;19.80;49.40;;;;;;936545;150;27316;-75
2023/06/12 02:40:44;;;;;;;3.40;3.10;;;19.70;49.60;;;;;;936432;151;27452;-75
2023/06/12 02:43:11;;;;;;;3.58;3.27;;;19.60;49.70;;;;;;937891;151;27831;-75
2023/06/12 02:45:38;;;;;;;3.77;3.37;;;19.60;49.90;;;;;;938523;151;27324;-75
2023/06/12 02:48:04;;;;;;;3.58;3.27;;;19.50;50.00;;;;;;936013;150;27312;-75
2023/06/12 02:50:31;;;;;;;4.65;4.25;;;19.50;50.10;;;;;;938012;151;27285;-75
2023/06/12 02:52:57;;;;;;;4.60;3.58;;;19.40;50.10;;;;;;936501;151;27390;-75
2023/06/12 02:55:24;;;;;;;3.50;3.12;;;19.40;50.20;;;;;;907766;154;27389;-75
2023/06/12 02:57:52;;;;;;;3.45;3.15;;;19.40;50.30;;;;;;916986;154;27397;-74
2023/06/12 03:00:17;;;;;;;3.67;3.37;;;19.30;50.40;;;;;;919869;153;27370;-73
2023/06/12 03:02:44;;;;;;;3.65;3.35;;;19.30;50.50;;;;;;937408;150;27388;-73
2023/06/12 03:05:14;;;;;;;3.67;3.37;;;19.20;50.60;;;;;;938293;151;27385;-73
2023/06/12 03:07:38;;;;;;;3.45;3.15;;;19.20;50.60;;;;;;936072;151;27737;-73
2023/06/12 03:10:04;;;;;;;3.98;3.62;;;19.20;50.80;;;;;;932645;150;27380;-73
2023/06/12 03:12:31;;;;;;;3.70;3.40;;;19.20;51.00;;;;;;924249;153;27410;-73
2023/06/12 03:14:58;;;;;;;3.55;3.25;;;19.20;51.10;;;;;;917526;154;27892;-73
2023/06/12 03:17:23;;;;;;;3.62;3.42;;;19.10;51.30;;;;;;904931;154;27371;-73
2023/06/12 03:19:50;;;;;;;4.65;4.17;;;19.10;51.40;;;;;;905440;154;27372;-73
2023/06/12 03:22:16;;;;;;;3.67;3.37;;;19.00;51.50;;;;;;908828;154;27305;-73
2023/06/12 03:24:46;;;;;;;4.22;3.92;;;19.00;51.70;;;;;;904359;154;27436;-73
2023/06/12 03:27:14;;;;;;;4.30;3.45;;;18.90;51.80;;;;;;906293;154;27390;-73
2023/06/12 03:29:39;;;;;;;5.00;3.72;;;18.90;51.90;;;;;;906767;154;27506;-73
2023/06/12 03:32:05;;;;;;;3.75;3.45;;;18.90;52.00;;;;;;904934;154;27477;-73
2023/06/12 03:34:32;;;;;;;4.20;3.90;;;18.80;52.20;;;;;;906398;154;27415;-73
2023/06/12 03:36:59;;;;;;;4.15;3.75;;;18.80;52.40;;;;;;905565;154;27480;-74
2023/06/12 03:39:25;;;;;;;3.92;3.52;;;18.70;52.50;;;;;;905336;154;27360;-73
2023/06/12 03:41:56;;;;;;;3.80;3.50;;;18.80;52.60;;;;;;904211;154;27476;-74
2023/06/12 03:44:21;;;;;;;4.25;3.85;;;18.70;52.70;;;;;;904786;154;27424;-74
2023/06/12 03:46:48;;;;;;;4.20;3.90;;;18.70;52.80;;;;;;905524;154;27368;-73
2023/06/12 03:49:14;;;;;;;3.87;3.58;;;18.70;52.90;;;;;;905412;154;27492;-73
2023/06/12 03:51:41;;;;;;;4.17;3.83;;;18.70;53.00;;;;;;907458;154;27509;-73
2023/06/12 03:54:07;;;;;;;3.87;3.47;;;18.70;53.10;;;;;;907325;154;27466;-73
2023/06/12 03:56:34;;;;;;;3.60;3.30;;;18.70;53.20;;;;;;906777;154;27408;-73
2023/06/12 03:59:01;;;;;;;4.20;3.85;;;18.70;53.30;;;;;;907566;154;27436;-73
2023/06/12 04:01:27;;;;;;;3.87;3.58;;;18.70;53.40;;;;;;907451;154;27297;-73
2023/06/12 04:03:54;;;;;;;4.87;3.17;;;18.80;53.60;;;;;;904898;154;27736;-74
2023/06/12 04:06:24;;;;;;;3.87;3.58;;;18.80;53.50;;;;;;936079;151;27480;-73
2023/06/12 04:08:51;;;;;;;4.10;3.80;;;18.90;53.80;;;;;;935512;151;27420;-73
2023/06/12 04:11:18;;;;;;;4.25;3.87;;;18.90;53.80;;;;;;920206;153;27375;-74
2023/06/12 04:13:43;;;;;;;3.77;3.47;;;18.90;53.90;;;;;;936419;151;27369;-73
2023/06/12 04:16:10;;;;;;;4.05;3.72;;;19.00;54.00;;;;;;936583;150;27400;-74
2023/06/12 04:18:37;;;;;;;4.97;4.12;;;19.00;53.90;;;;;;936158;150;27474;-74
2023/06/12 04:21:03;;;;;;;3.60;3.30;;;19.10;54.00;;;;;;920380;154;27392;-73
2023/06/12 04:23:31;;;;;;;4.10;3.80;;;19.20;54.10;;;;;;919227;153;27345;-74
2023/06/12 04:26:04;;;;;;;4.12;3.72;;;19.30;54.10;;;;;;915318;154;27351;-73
2023/06/12 04:28:28;;;;;;;4.37;4.08;;;19.30;54.10;;;;;;912297;154;27430;-73
2023/06/12 04:30:51;;;;;;;3.92;3.62;;;19.40;54.10;;;;;;920193;153;27434;-74
2023/06/12 04:33:18;;;;;;;3.95;3.65;;;19.50;54.20;;;;;;916978;154;27520;-74
2023/06/12 04:35:45;;;;;;;4.20;3.83;;;19.60;54.20;;;;;;936542;151;27859;-73
2023/06/12 04:38:11;;;;;;;4.15;3.85;;;19.70;54.20;;;;;;937011;151;27358;-74
2023/06/12 04:40:38;;;;;;;3.85;3.50;;;19.80;54.20;;;;;;936017;151;27290;-73
2023/06/12 04:43:05;;;;;;;3.90;3.60;;;19.90;54.10;;;;;;937411;151;27445;-73
2023/06/12 04:45:32;;;;;;;4.03;3.72;;;20.00;54.20;;;;;;933697;151;27423;-73
2023/06/12 04:47:57;;;;;;;3.87;3.58;;;20.10;54.20;;;;;;905939;154;27407;-73
2023/06/12 04:50:25;;;;;;;4.12;3.83;;;20.20;54.20;;;;;;906460;154;27414;-73
2023/06/12 04:52:52;;;;;;;3.58;3.27;;;20.30;54.00;;;;;;905601;154;27375;-73
2023/06/12 04:55:22;;;;;;;4.28;3.98;;;20.50;54.00;;;;;;905538;154;27402;-74
2023/06/12 04:57:45;;;;;;;4.58;4.12;;;20.70;54.00;;;;;;904658;154;27407;-73
2023/06/12 05:00:15;;;;;;;3.92;3.60;;;21.00;54.40;;;;;;905802;154;27435;-74
2023/06/12 05:02:37;;;;;;;4.08;3.77;;;21.40;54.90;;;;;;905986;154;27473;-73
2023/06/12 05:05:04;;;;;;;4.03;3.70;;;21.90;55.30;;;;;;904984;154;27423;-74
2023/06/12 05:07:34;;;;;;;3.30;3.10;;;22.50;55.30;;;;;;905874;154;27461;-73
2023/06/12 05:09:57;;;;;;;4.08;3.77;;;23.20;55.10;;;;;;906134;154;27482;-74
2023/06/12 05:12:23;;;;;;;4.03;3.62;;;24.00;54.70;;;;;;905438;154;27399;-74
2023/06/12 05:14:50;;;;;;;3.52;3.22;;;24.80;54.20;;;;;;889174;155;27371;-74
2023/06/12 05:17:17;;;;;;;4.30;3.62;;;25.70;53.50;;;;;;890167;155;27476;-74
2023/06/12 05:19:43;;;;;;;3.83;3.52;;;26.60;52.60;;;;;;891074;155;27392;-74
2023/06/12 05:22:10;;;;;;;4.08;3.67;;;27.40;51.50;;;;;;891036;155;27532;-75
2023/06/12 05:24:37;;;;;;;4.05;3.15;;;28.30;50.50;;;;;;890903;155;27413;-74
2023/06/12 05:27:03;;;;;;;4.47;4.08;;;29.00;49.40;;;;;;890827;155;27383;-74
2023/06/12 05:29:30;;;;;;;5.47;3.42;;;29.80;48.60;;;;;;893448;155;27715;-75
2023/06/12 05:31:56;;;;;;;3.62;3.35;;;30.40;47.30;;;;;;890897;155;27411;-74
2023/06/12 05:34:23;;;;;;;3.40;3.10;;;31.10;46.50;;;;;;891392;155;27931;-74
2023/06/12 05:36:49;;;;;;;4.08;3.70;;;31.60;45.50;;;;;;889246;155;27366;-74
2023/06/12 05:39:16;;;;;;;3.62;3.40;;;32.10;44.80;;;;;;890040;155;27483;-74
2023/06/12 05:41:42;;;;;;;3.40;3.10;;;32.70;44.20;;;;;;889935;155;27430;-74
2023/06/12 05:44:09;;;;;;;3.10;2.90;;;33.20;43.50;;;;;;890881;155;27468;-74
2023/06/12 05:46:36;;;;;;;3.72;3.42;;;33.80;43.00;;;;;;890191;155;27351;-74
2023/06/12 05:49:03;;;;;;;3.50;3.30;;;34.40;42.30;;;;;;914453;154;27385;-74
2023/06/12 05:51:29;;;;;;;3.77;3.10;;;34.90;41.60;;;;;;918674;153;26280;-74
2023/06/12 05:53:55;;;;;;;4.05;3.77;;;35.40;41.10;;;;;;922556;152;26378;-74
2023/06/12 05:56:25;;;;;;;3.87;3.58;;;35.90;40.50;;;;;;906706;155;26294;-74
2023/06/12 05:58:51;;;;;;;3.15;2.95;;;36.40;39.90;;;;;;902923;156;26389;-74
2023/06/12 06:01:21;;;;;;;5.35;3.77;;;36.90;39.40;;;;;;925443;151;26228;-74
2023/06/12 06:03:45;;;;;;;3.75;3.45;;;37.30;38.80;;;;;;921784;152;27467;-74
2023/06/12 06:06:14;;;;;;;4.92;3.17;;;37.70;38.20;;;;;;918817;153;26320;-74
2023/06/12 06:08:40;;;;;;;4.22;3.70;;;38.10;37.80;;;;;;908130;155;26321;-74
2023/06/12 06:11:07;;;;;;;3.83;3.47;;;38.60;37.30;;;;;;905664;155;26293;-74
2023/06/12 06:13:33;;;;;;;3.15;2.95;;;39.00;36.80;;;;;;917769;154;26626;-74
2023/06/12 06:16:02;;;;;;;3.58;3.37;;;39.40;36.40;;;;;;912304;154;26311;-73
2023/06/12 06:18:27;;;;;;;4.40;3.60;;;39.70;35.80;;;;;;914243;154;26309;-73
2023/06/12 06:20:53;;;;;;;3.62;3.33;;;40.20;35.30;;;;;;915299;154;26274;-73
2023/06/12 06:23:20;;;;;;;3.52;3.22;;;40.60;34.80;;;;;;902690;156;26267;-73
2023/06/12 06:25:47;;;;;;;3.30;3.00;;;41.00;34.10;;;;;;908884;155;26277;-73
2023/06/12 06:28:13;;;;;;;3.05;2.67;;;41.50;33.60;;;;;;913647;154;26442;-73
2023/06/12 06:30:40;;;;;;;3.00;2.80;;;41.90;32.90;;;;;;923382;153;26268;-73
2023/06/12 06:33:06;;;;;;;3.20;3.00;;;42.30;32.30;;;;;;909298;153;26241;-73
2023/06/12 06:35:33;;;;;;;3.72;2.75;;;42.70;32.00;;;;;;892223;156;26198;-74
2023/06/12 06:37:59;;;;;;;3.02;2.83;;;43.10;31.60;;;;;;892467;156;26375;-76
2023/06/12 06:40:26;;;;;;;3.20;2.90;;;43.30;30.90;;;;;;893130;157;26314;-76
2023/06/12 06:42:55;;;;;;;4.65;3.12;;;43.60;30.40;;;;;;891513;156;26231;-76
2023/06/12 06:45:22;;;;;;;3.47;3.12;;;43.80;30.10;;;;;;891709;156;26394;-76
2023/06/12 06:47:49;;;;;;;3.12;2.83;;;43.90;29.80;;;;;;892605;156;26357;-76
2023/06/12 06:50:16;;;;;;;2.70;2.50;;;44.00;29.70;;;;;;912847;154;26309;-76
2023/06/12 06:52:42;;;;;;;2.83;2.58;;;44.10;29.40;;;;;;913292;154;26281;-74
2023/06/12 06:55:09;;;;;;;3.05;2.75;;;44.20;29.20;;;;;;912698;154;26785;-74
2023/06/12 06:57:37;;;;;;;2.98;2.77;;;44.30;28.90;;;;;;916533;154;26258;-73
2023/06/12 07:00:05;;;;;;;2.95;2.75;;;44.40;28.70;;;;;;912737;154;26417;-74
2023/06/12 07:02:28;;;;;;;2.87;2.67;;;44.50;28.60;;;;;;911895;154;26308;-74
2023/06/12 07:04:55;;;;;;;3.15;2.87;;;44.60;28.40;;;;;;913408;154;26233;-74
2023/06/12 07:07:21;;;;;;;3.30;3.00;;;44.70;28.20;;;;;;914985;154;26346;-74
2023/06/12 07:09:48;;;;;;;3.42;3.12;;;44.90;28.10;;;;;;913268;154;26426;-74
2023/06/12 07:12:15;;;;;;;3.02;2.80;;;45.00;28.00;;;;;;912474;154;26733;-74
2023/06/12 07:14:41;;;;;;;2.87;2.62;;;45.20;27.60;;;;;;915630;154;26330;-74
2023/06/12 07:17:08;;;;;;;2.80;2.60;;;45.20;27.40;;;;;;916102;154;26284;-74
2023/06/12 07:19:34;;;;;;;3.05;2.72;;;45.30;27.30;;;;;;908469;155;26293;-74
2023/06/12 07:22:01;;;;;;;2.67;2.47;;;45.30;27.10;;;;;;916476;154;26388;-74
2023/06/12 07:24:27;;;;;;;2.50;2.40;;;45.30;26.90;;;;;;914292;154;26292;-73
2023/06/12 07:26:54;;;;;;;3.25;2.72;;;45.20;26.80;;;;;;916310;153;26280;-74
2023/06/12 07:29:22;;;;;;;2.60;2.40;;;45.20;26.80;;;;;;919269;151;26296;-74
2023/06/12 07:31:48;;;;;;;3.10;2.90;;;45.20;27.00;;;;;;916796;154;26390;-76
2023/06/12 07:34:14;;;;;;;6.08;2.85;;;45.20;27.00;;;;;;890994;155;26307;-76
2023/06/12 07:36:40;;;;;;;3.22;3.02;;;45.30;27.00;;;;;;892203;155;26295;-76
2023/06/12 07:39:07;;;;;;;2.60;2.42;;;45.40;26.70;;;;;;891906;155;26370;-76
2023/06/12 07:41:38;;;;;;;2.83;2.42;;;45.50;26.70;;;;;;892912;155;26299;-76
2023/06/12 07:44:00;;;;;;;3.37;2.70;;;45.60;26.60;;;;;;890758;155;26306;-76
2023/06/12 07:46:27;;;;;;;2.98;2.77;;;45.80;26.50;;;;;;890624;155;26726;-76
2023/06/12 07:48:53;;;;;;;2.92;2.72;;;46.00;26.40;;;;;;890009;155;26645;-76
2023/06/12 07:51:21;;;;;;;2.90;2.60;;;46.10;26.10;;;;;;891395;155;26268;-76
2023/06/12 07:53:47;;;;;;;2.70;2.52;;;46.30;26.40;;;;;;892288;155;26367;-76
2023/06/12 07:56:16;;;;;;;2.83;2.62;;;46.30;25.80;;;;;;890702;155;26310;-76
2023/06/12 07:58:40;;;;;;;2.60;2.40;;;46.40;25.80;;;;;;914859;154;26324;-76
2023/06/12 08:01:06;;;;;;;2.92;2.72;;;46.40;25.60;;;;;;916000;153;26256;-76
2023/06/12 08:03:38;;;;;;;2.80;2.60;;;46.30;25.30;;;;;;916031;153;26249;-76
2023/06/12 08:06:00;;;;;;;2.77;2.58;;;46.20;25.20;;;;;;916120;153;26364;-76
2023/06/12 08:08:26;;;;;;;2.60;2.50;;;46.10;25.20;;;;;;917443;154;26318;-76
2023/06/12 08:10:53;;;;;;;2.60;2.47;;;46.00;25.40;;;;;;915705;154;26268;-78
2023/06/12 08:13:19;;;;;;;3.02;2.80;;;45.90;25.40;;;;;;915689;153;26368;-76
2023/06/12 08:15:46;;;;;;;2.70;2.58;;;46.00;25.50;;;;;;913770;154;26408;-76
2023/06/12 08:18:13;;;;;;;2.17;2.08;;;46.10;25.50;;;;;;913431;154;26297;-76
2023/06/12 08:20:40;;;;;;;2.52;2.35;;;46.10;25.40;;;;;;914146;154;26377;-76
2023/06/12 08:23:06;;;;;;;2.47;2.25;;;46.30;25.40;;;;;;913003;154;26654;-76
2023/06/12 08:25:33;;;;;;;2.92;2.42;;;46.40;25.30;;;;;;912870;154;26281;-76
2023/06/12 08:27:59;;;;;;;3.35;3.00;;;46.60;25.30;;;;;;914444;153;26321;-76
2023/06/12 08:30:26;;;;;;;2.92;2.72;;;46.70;25.10;;;;;;924730;152;26309;-76
2023/06/12 08:32:53;;;;;;;3.62;2.85;;;46.80;25.00;;;;;;909297;155;26734;-76
2023/06/12 08:35:19;;;;;;;3.58;2.80;;;47.00;25.00;;;;;;904280;156;26256;-76
2023/06/12 08:37:46;;;;;;;2.52;2.33;;;47.10;24.60;;;;;;924897;152;26333;-76
2023/06/12 08:40:12;;;;;;;2.42;2.22;;;47.20;24.30;;;;;;913369;154;26289;-74
2023/06/12 08:42:39;;;;;;;2.33;2.22;;;47.20;24.10;;;;;;913050;154;26382;-74
2023/06/12 08:45:06;;;;;;;2.27;2.17;;;47.30;24.00;;;;;;906421;155;26320;-74
2023/06/12 08:47:32;;;;;;;2.50;2.30;;;47.30;23.70;;;;;;908317;154;26339;-74
2023/06/12 08:49:59;;;;;;;2.85;2.65;;;47.20;23.50;;;;;;924108;152;26257;-74
2023/06/12 08:52:26;;;;;;;2.37;2.27;;;47.10;23.40;;;;;;905257;155;26308;-74
2023/06/12 08:54:52;;;;;;;2.87;2.67;;;47.00;23.30;;;;;;892001;156;26335;-74
2023/06/12 08:57:19;;;;;;;2.65;2.45;;;47.00;23.20;;;;;;926130;152;26320;-74
2023/06/12 08:59:45;;;;;;;2.98;2.70;;;46.80;22.90;;;;;;925481;152;26341;-74
2023/06/12 09:02:12;;;;;;;3.75;2.77;;;46.60;22.90;;;;;;891833;156;26288;-74
2023/06/12 09:04:47;;;;;;;2.50;2.37;;;46.30;22.90;;;;;;892676;157;26307;-74
2023/06/12 09:07:17;;;;;;;2.67;2.47;;;46.00;22.90;;;;;;891177;156;26317;-74
2023/06/12 09:09:41;;;;;;;2.42;2.22;;;45.70;23.50;;;;;;890936;156;26608;-74
2023/06/12 09:12:13;;;;;;;3.58;2.40;;;45.50;23.00;;;;;;891656;156;26280;-74
2023/06/12 09:14:39;;;;;;;2.87;2.60;;;45.20;23.00;;;;;;913830;154;26411;-73
2023/06/12 09:17:09;;;;;;;4.60;2.58;;;45.10;23.10;;;;;;915711;153;26351;-74
2023/06/12 09:19:41;;;;;;;3.80;2.60;;;45.00;23.00;;;;;;919702;154;26257;-74
2023/06/12 09:22:08;;;;;;;2.92;2.72;;;44.80;22.90;;;;;;916268;154;26312;-74
2023/06/12 09:24:34;;;;;;;3.62;3.00;;;44.70;22.80;;;;;;918006;154;26309;-74
2023/06/12 09:27:02;;;;;;;2.85;2.65;;;44.50;22.80;;;;;;920204;154;26283;-74
2023/06/12 09:29:31;;;;;;;2.90;2.70;;;44.30;22.90;;;;;;918314;151;26295;-74
2023/06/12 09:32:00;;;;;;;5.22;2.58;;;44.00;23.10;;;;;;917082;153;26284;-74
2023/06/12 09:34:27;;;;;;;2.70;2.50;;;43.80;23.20;;;;;;915061;154;26422;-74
2023/06/12 09:36:53;;;;;;;2.80;2.60;;;43.70;23.10;;;;;;916957;153;26344;-74
2023/06/12 09:39:26;;;;;;;2.87;2.67;;;43.60;23.30;;;;;;917154;154;26402;-74
2023/06/12 09:41:53;;;;;;;3.37;3.08;;;43.50;23.20;;;;;;914138;153;26464;-73
2023/06/12 09:44:22;;;;;;;3.65;2.50;;;43.40;23.10;;;;;;922307;152;26304;-72
2023/06/12 09:46:49;;;;;;;3.45;2.70;;;43.30;23.10;;;;;;921393;152;26325;-73
2023/06/12 09:49:15;;;;;;;3.35;2.83;;;43.20;23.20;;;;;;923537;152;26962;-73
2023/06/12 09:51:42;;;;;;;2.95;2.75;;;43.10;23.30;;;;;;897912;155;26387;-73
2023/06/12 09:54:08;;;;;;;2.95;2.72;;;43.00;23.80;;;;;;920773;152;26230;-73
2023/06/12 09:56:35;;;;;;;3.47;2.40;;;42.80;23.30;;;;;;900438;155;26319;-73
2023/06/12 09:59:02;;;;;;;2.55;2.40;;;42.60;23.30;;;;;;923149;152;26284;-73
2023/06/12 10:01:28;;;;;;;3.00;2.72;;;42.40;23.30;;;;;;906030;155;26245;-73
2023/06/12 10:03:56;;;;;;;3.00;2.80;;;42.20;23.50;;;;;;890984;155;26231;-73
2023/06/12 10:06:21;;;;;;;3.60;2.98;;;41.90;23.40;;;;;;890934;155;26275;-73
2023/06/12 10:08:50;;;;;;;3.12;2.83;;;41.70;23.30;;;;;;889125;155;26385;-73
2023/06/12 10:11:15;;;;;;;3.15;2.95;;;41.40;23.30;;;;;;889221;155;26306;-73
2023/06/12 10:13:41;;;;;;;3.87;2.90;;;41.00;23.40;;;;;;891397;155;26269;-73
2023/06/12 10:16:08;;;;;;;3.10;2.90;;;40.60;23.60;;;;;;892692;155;26371;-73
2023/06/12 10:18:34;;;;;;;3.35;3.15;;;40.20;23.80;;;;;;890256;155;26268;-73
2023/06/12 10:21:01;;;;;;;3.92;3.35;;;39.80;23.90;;;;;;890635;155;26319;-73
2023/06/12 10:23:28;;;;;;;3.12;2.83;;;39.40;23.80;;;;;;915098;154;26423;-72
2023/06/12 10:25:54;;;;;;;4.92;4.03;;;38.90;24.00;;;;;;916031;154;26358;-73
2023/06/12 10:28:21;;;;;;;3.25;3.05;;;38.30;24.10;;;;;;915139;153;27403;-72
2023/06/12 10:31:15;;;;;;;3.83;3.42;;;37.80;24.50;;;;;;918123;153;26404;-72
2023/06/12 10:34:04;;;;;;;3.70;3.40;;;37.30;24.70;;;;;;915429;154;27507;-73
2023/06/12 10:36:42;;;;;;;4.10;3.70;;;36.80;25.00;;;;;;918086;153;27416;-72
2023/06/12 10:39:18;;;;;;;3.90;3.22;;;36.40;25.10;;;;;;890449;156;27438;-75
2023/06/12 10:41:53;;;;;;;3.35;3.15;;;36.10;25.30;;;;;;921902;152;27406;-74
2023/06/12 10:44:38;;;;;;;3.80;3.50;;;35.90;25.50;;;;;;921907;152;27372;-75
2023/06/12 10:47:04;;;;;;;3.47;3.27;;;35.50;25.50;;;;;;923103;152;27457;-74
2023/06/12 10:49:31;;;;;;;6.12;3.20;;;35.20;25.70;;;;;;918997;153;27408;-74
2023/06/12 10:52:00;;;;;;;3.35;3.15;;;34.90;25.70;;;;;;916379;154;27466;-74
2023/06/12 10:54:27;;;;;;;3.47;3.17;;;34.70;26.00;;;;;;916420;154;27320;-74
2023/06/12 10:56:57;;;;;;;4.12;3.70;;;34.50;26.00;;;;;;922870;152;27678;-74
2023/06/12 10:59:23;;;;;;;3.60;3.30;;;34.20;26.20;;;;;;921380;152;27380;-74
2023/06/12 11:01:50;;;;;;;4.90;4.00;;;34.00;26.40;;;;;;907356;155;27412;-74
2023/06/12 11:04:16;;;;;;;3.67;3.35;;;33.80;26.60;;;;;;903683;155;27400;-74
2023/06/12 11:06:44;;;;;;;4.00;3.60;;;33.60;26.80;;;;;;921983;153;27375;-74
2023/06/12 11:09:11;;;;;;;3.47;3.17;;;33.30;26.70;;;;;;918357;153;27319;-75
2023/06/12 11:11:37;;;;;;;3.40;3.05;;;33.20;26.90;;;;;;920787;153;27420;-74
2023/06/12 11:14:03;;;;;;;3.62;3.25;;;33.10;27.00;;;;;;919294;153;27385;-74
2023/06/12 11:16:30;;;;;;;3.80;3.10;;;32.90;27.70;;;;;;920047;153;27447;-74
2023/06/12 11:19:05;;;;;;;3.02;2.83;;;32.80;27.30;;;;;;920861;153;27408;-74
2023/06/12 11:21:32;;;;;;;3.77;3.47;;;32.60;27.60;;;;;;919937;153;27380;-74
2023/06/12 11:23:58;;;;;;;4.62;3.55;;;32.60;27.80;;;;;;918901;153;27425;-74
2023/06/12 11:26:25;;;;;;;4.72;3.52;;;32.50;27.90;;;;;;918611;153;27451;-74
2023/06/12 11:28:51;;;;;;;3.83;3.52;;;32.50;27.90;;;;;;919852;153;27413;-74
2023/06/12 11:31:18;;;;;;;3.30;3.10;;;32.50;27.90;;;;;;921048;153;27315;-74
2023/06/12 11:33:44;;;;;;;3.42;3.17;;;32.50;27.80;;;;;;920507;153;27840;-74
2023/06/12 11:36:11;;;;;;;3.75;3.45;;;32.50;28.00;;;;;;917642;153;27518;-74
2023/06/12 11:38:38;;;;;;;3.52;3.22;;;32.40;27.80;;;;;;919990;153;27320;-74
2023/06/12 11:41:04;;;;;;;3.75;3.45;;;32.40;27.80;;;;;;918627;153;27360;-74
2023/06/12 11:43:31;;;;;;;3.65;3.35;;;32.30;27.60;;;;;;920185;153;27494;-74
2023/06/12 11:45:57;;;;;;;3.60;3.30;;;32.20;27.70;;;;;;920556;153;27401;-74
2023/06/12 11:48:24;;;;;;;3.72;3.42;;;32.00;27.70;;;;;;921183;153;27372;-74
2023/06/12 11:50:51;;;;;;;4.30;3.72;;;31.90;27.80;;;;;;918828;153;27498;-74
2023/06/12 11:53:17;;;;;;;4.45;3.55;;;31.80;27.90;;;;;;920917;153;27340;-74
2023/06/12 11:55:47;;;;;;;3.33;3.12;;;31.80;27.90;;;;;;919584;153;27436;-74
2023/06/12 11:58:13;;;;;;;3.45;3.15;;;31.60;28.00;;;;;;918564;153;27379;-74
2023/06/12 12:00:40;;;;;;;4.45;3.22;;;31.60;28.20;;;;;;918088;153;27419;-74
2023/06/12 12:03:09;;;;;;;3.67;3.40;;;31.60;28.40;;;;;;918237;153;27401;-74
2023/06/12 12:05:33;;;;;;;3.62;3.20;;;31.60;28.50;;;;;;918256;153;27482;-74
2023/06/12 12:08:03;;;;;;;3.77;3.47;;;31.60;28.40;;;;;;919625;153;27494;-74
2023/06/12 12:10:28;;;;;;;4.15;3.33;;;31.50;28.30;;;;;;920306;153;27390;-74
2023/06/12 12:12:59;;;;;;;3.33;3.12;;;31.50;28.50;;;;;;919601;153;27365;-75
2023/06/12 12:15:24;;;;;;;3.12;2.90;;;31.50;28.30;;;;;;918087;153;27770;-75
2023/06/12 12:17:51;;;;;;;3.30;2.95;;;31.50;28.30;;;;;;918643;153;27471;-74
2023/06/12 12:20:18;;;;;;;3.40;3.10;;;31.40;28.20;;;;;;919525;153;27772;-74
2023/06/12 12:22:47;;;;;;;3.10;2.72;;;31.40;28.10;;;;;;918123;153;27365;-74
2023/06/12 12:25:22;;;;;;;3.50;3.02;;;31.40;28.20;;;;;;919214;153;27478;-74
2023/06/12 12:27:46;;;;;;;5.78;3.30;;;31.30;28.40;;;;;;918621;151;27304;-74
2023/06/12 12:30:14;;;;;;;3.35;3.15;;;31.30;28.50;;;;;;920620;153;27450;-74
2023/06/12 12:32:39;;;;;;;3.15;2.95;;;31.30;28.70;;;;;;919696;153;27767;-74
2023/06/12 12:35:06;;;;;;;4.05;3.08;;;31.30;28.70;;;;;;919703;153;27416;-74
2023/06/12 12:37:32;;;;;;;3.20;2.95;;;31.30;28.70;;;;;;919102;153;27495;-74
2023/06/12 12:39:59;;;;;;;3.40;3.10;;;31.40;28.60;;;;;;921346;153;27371;-74
2023/06/12 12:42:26;;;;;;;4.72;3.45;;;31.40;28.50;;;;;;921630;153;27360;-74
2023/06/12 12:44:52;;;;;;;5.10;2.90;;;31.30;28.30;;;;;;920457;153;27408;-74
2023/06/12 12:47:19;;;;;;;3.10;2.87;;;31.30;28.20;;;;;;922826;153;27365;-74